Terminal Aerodrome Forecast
Issued by NWS Paducah, KY

Home | Current Version | Previous Version | Text Only | Print | Product List | Glossary On
Versions: 1 2 3 4 5 6 7 8 9 10 11 12 13 14 15 16 17 18 19 20
000
FTUS43 KPAH 162331
TAFEVV
TAF
KEVV 162331Z 1700/1724 31006KT P6SM OVC035
      TEMPO 1700/1704 6SM -SN BR OVC025
     FM171600 29004KT P6SM SCT025
     FM172200 26005KT P6SM FEW025=

USA.gov is the U.S. government's official web portal to all federal, state and local government web resources and services.